Port Mellon, Canada
Current Conditions -  °F | °C
As of 6:00 AM on Saturday 22 Nov 2014 (Local Time) from CYVR Reporting Station
Overcast Overcast  
Wind Chill: 39°   Ceiling: 8700
Heat Index: 43°   Visibility: 15mi
Dew Point: 41°   Wind: 7mph
Humidity: 93%   Direction: 160°SSE
Pressure: 29.62"   Gusts: NA
Location:  49.52°N, 123.48°W
Report Text: CYVR 221400Z 16006KT 15SM FEW033 BKN087 OVC110 06/05 A2962 RMK SC1AC6AC1 SLP029
Loading
Personal Weather Stations






























Interactive Weather Map New forecast layout! Learn more

10-Day Weather Forecast

Advertisements
Track Severe Weather on mobile